createdAt,value
2022-12-23T00:01:26.938Z,10.74
2022-12-23T00:04:52.087Z,10.72
2022-12-23T00:08:17.242Z,10.66
2022-12-23T00:11:42.456Z,10.61
2022-12-23T00:15:07.624Z,10.58
2022-12-23T00:18:32.787Z,10.57
2022-12-23T00:21:57.953Z,10.57
2022-12-23T00:25:23.108Z,10.57
2022-12-23T00:28:48.324Z,10.54
2022-12-23T00:32:13.578Z,10.51
2022-12-23T00:35:38.643Z,10.53
2022-12-23T00:39:03.823Z,10.52
2022-12-23T00:42:29.009Z,10.57
2022-12-23T00:45:54.260Z,10.59
2022-12-23T00:49:19.340Z,10.57
2022-12-23T00:52:44.507Z,10.56
2022-12-23T00:56:09.693Z,10.59
2022-12-23T00:59:34.874Z,10.63
2022-12-23T01:03:00.220Z,10.63
2022-12-23T01:06:25.218Z,10.63
2022-12-23T01:09:50.378Z,10.58
2022-12-23T01:13:15.569Z,10.53
2022-12-23T01:16:40.805Z,10.54
2022-12-23T01:20:05.920Z,10.58
2022-12-23T01:23:31.084Z,10.58
2022-12-23T01:26:56.247Z,10.61
2022-12-23T01:30:21.411Z,10.66
2022-12-23T01:33:46.565Z,10.68
2022-12-23T01:37:11.776Z,10.67
2022-12-23T01:40:36.909Z,10.65
2022-12-23T01:44:02.082Z,10.6
2022-12-23T01:47:27.268Z,10.6
2022-12-23T01:50:52.429Z,10.58
2022-12-23T01:54:17.629Z,10.56
2022-12-23T01:57:42.763Z,10.5
2022-12-23T02:01:07.992Z,10.46
2022-12-23T02:04:33.101Z,10.43
2022-12-23T02:07:58.258Z,10.45
2022-12-23T02:11:23.444Z,10.45
2022-12-23T02:14:48.584Z,10.45
2022-12-23T02:18:13.821Z,10.46
2022-12-23T02:21:38.994Z,10.43
2022-12-23T02:25:04.168Z,10.41
2022-12-23T02:28:29.389Z,10.38
2022-12-23T02:31:54.529Z,10.38
2022-12-23T02:35:19.690Z,10.38
2022-12-23T02:38:44.845Z,10.37
2022-12-23T02:42:10.028Z,10.34
2022-12-23T02:45:35.236Z,10.34
2022-12-23T02:49:00.353Z,10.33
2022-12-23T02:52:25.530Z,10.33
2022-12-23T02:55:50.676Z,10.36
2022-12-23T02:59:15.859Z,10.34
2022-12-23T03:02:41.272Z,10.34
2022-12-23T03:06:06.183Z,10.34
2022-12-23T03:09:31.347Z,10.33
2022-12-23T03:12:56.507Z,10.35
2022-12-23T03:16:21.717Z,10.37
2022-12-23T03:19:47.046Z,10.42
2022-12-23T03:23:12.022Z,10.45
2022-12-23T03:26:37.196Z,10.45
2022-12-23T03:30:02.373Z,10.45
2022-12-23T03:33:27.516Z,10.43
2022-12-23T03:36:52.717Z,10.45
2022-12-23T03:40:17.837Z,10.47
2022-12-23T03:43:48.494Z,10.47
2022-12-23T03:47:08.188Z,10.5
2022-12-23T03:50:33.347Z,10.54
2022-12-23T03:53:58.532Z,10.52
2022-12-23T03:57:23.678Z,10.5
2022-12-23T04:00:48.830Z,10.53
2022-12-23T04:04:14.055Z,10.55
2022-12-23T04:07:39.176Z,10.59
2022-12-23T04:11:04.345Z,10.62
2022-12-23T04:14:29.513Z,10.63
2022-12-23T04:17:54.678Z,10.67
2022-12-23T04:21:19.837Z,10.69
2022-12-23T04:24:45.029Z,10.74
2022-12-23T04:28:10.244Z,10.76
2022-12-23T04:31:35.418Z,10.76
2022-12-23T04:35:00.539Z,10.78
2022-12-23T04:38:25.710Z,10.79
2022-12-23T04:41:50.902Z,10.8
2022-12-23T04:45:16.107Z,10.78
2022-12-23T04:48:41.212Z,10.79
2022-12-23T04:52:06.396Z,10.79
2022-12-23T04:55:31.550Z,10.8
2022-12-23T04:58:56.721Z,10.81
2022-12-23T05:02:22.005Z,10.84
2022-12-23T05:05:47.037Z,10.87
2022-12-23T05:09:12.200Z,10.85
2022-12-23T05:12:37.394Z,10.8
2022-12-23T05:16:08.326Z,10.75
2022-12-23T05:19:33.431Z,10.73
2022-12-23T05:22:58.613Z,10.71
2022-12-23T05:26:23.780Z,10.69
2022-12-23T05:29:48.942Z,10.62
2022-12-23T05:33:14.213Z,10.58
2022-12-23T05:36:39.308Z,10.59
2022-12-23T05:40:04.474Z,10.6
2022-12-23T05:43:29.724Z,10.61
2022-12-23T05:46:54.921Z,10.62
2022-12-23T05:50:20.100Z,10.61
2022-12-23T05:53:45.299Z,10.62
2022-12-23T05:57:10.454Z,10.64
2022-12-23T06:00:35.633Z,10.64
2022-12-23T06:04:00.976Z,10.64
2022-12-23T06:07:26.009Z,10.66
2022-12-23T06:10:51.210Z,10.69
2022-12-23T06:14:16.402Z,10.66
2022-12-23T06:17:41.589Z,10.66
2022-12-23T06:21:06.769Z,10.63
2022-12-23T06:24:31.968Z,10.65
2022-12-23T06:27:57.174Z,10.65
2022-12-23T06:31:22.413Z,10.63
2022-12-23T06:34:47.481Z,10.66
2022-12-23T06:38:12.682Z,10.7
2022-12-23T06:41:37.904Z,10.7
2022-12-23T06:45:03.112Z,10.69
2022-12-23T06:48:28.285Z,10.72
2022-12-23T06:51:53.454Z,10.69
2022-12-23T06:55:18.619Z,10.67
2022-12-23T06:58:43.820Z,10.7
2022-12-23T07:02:09.179Z,10.76
2022-12-23T07:05:37.212Z,10.79
2022-12-23T07:08:59.384Z,10.76
2022-12-23T07:12:24.564Z,10.72
2022-12-23T07:15:49.753Z,10.73
2022-12-23T07:19:14.948Z,10.72
2022-12-23T07:22:40.102Z,10.66
2022-12-23T07:26:05.290Z,10.65
2022-12-23T07:29:30.492Z,10.65
2022-12-23T07:32:55.664Z,10.69
2022-12-23T07:36:20.895Z,10.71
2022-12-23T07:39:46.033Z,10.75
2022-12-23T07:43:11.256Z,10.77
2022-12-23T07:46:36.522Z,10.79
2022-12-23T07:50:01.718Z,10.81
2022-12-23T07:53:27.473Z,10.81
2022-12-23T07:56:52.653Z,10.82
2022-12-23T08:00:18.029Z,10.83
2022-12-23T08:03:43.419Z,10.85
2022-12-23T08:07:08.559Z,10.93
2022-12-23T08:10:33.931Z,10.97
2022-12-23T08:13:58.974Z,11
2022-12-23T08:17:24.378Z,10.99
2022-12-23T08:20:49.390Z,10.99
2022-12-23T08:24:14.546Z,11.04
2022-12-23T08:27:39.786Z,11.11
2022-12-23T08:31:05.050Z,11.14
2022-12-23T08:34:30.155Z,11.19
2022-12-23T08:37:55.355Z,11.25
2022-12-23T08:41:20.514Z,11.32
2022-12-23T08:44:45.753Z,11.38
2022-12-23T08:48:10.909Z,11.4
2022-12-23T08:51:36.088Z,11.43
2022-12-23T08:55:01.280Z,11.42
2022-12-23T08:58:28.772Z,11.42
2022-12-23T09:01:54.109Z,11.43
2022-12-23T09:05:19.154Z,11.45
2022-12-23T09:08:44.361Z,11.42
2022-12-23T09:12:09.531Z,11.39
2022-12-23T09:15:34.730Z,11.43
2022-12-23T09:18:59.950Z,11.5
2022-12-23T09:22:25.079Z,11.6
2022-12-23T09:25:50.260Z,11.65
2022-12-23T09:29:15.476Z,11.65
2022-12-23T09:32:40.661Z,11.62
2022-12-23T09:36:05.854Z,11.63
2022-12-23T09:39:31.016Z,11.62
2022-12-23T09:42:56.210Z,11.56
2022-12-23T09:46:21.450Z,11.55
2022-12-23T09:49:46.570Z,11.58
2022-12-23T09:53:11.781Z,11.6
2022-12-23T09:56:36.935Z,11.62
2022-12-23T10:00:02.151Z,11.58
2022-12-23T10:03:27.444Z,11.58
2022-12-23T10:06:56.224Z,11.58
2022-12-23T10:10:17.695Z,11.56
2022-12-23T10:13:42.832Z,11.58
2022-12-23T10:17:08.016Z,11.58
2022-12-23T10:20:33.192Z,11.57
2022-12-23T10:23:58.378Z,11.63
2022-12-23T10:27:23.582Z,11.66
2022-12-23T10:31:10.807Z,11.67
2022-12-23T10:34:13.909Z,11.66
2022-12-23T10:37:39.097Z,11.65
2022-12-23T10:41:07.045Z,11.65
2022-12-23T10:44:29.479Z,11.64
2022-12-23T10:47:54.640Z,11.65
2022-12-23T10:51:19.831Z,11.71
2022-12-23T10:54:44.982Z,11.74
2022-12-23T10:58:10.139Z,11.71
2022-12-23T11:01:35.616Z,11.61
2022-12-23T11:05:00.495Z,11.56
2022-12-23T11:08:25.710Z,11.47
2022-12-23T11:11:50.886Z,11.45
2022-12-23T11:15:16.088Z,11.44
2022-12-23T11:18:42.226Z,11.43
2022-12-23T11:22:06.462Z,11.45
2022-12-23T11:25:31.653Z,11.47
2022-12-23T11:28:56.814Z,11.48
2022-12-23T11:32:21.991Z,11.52
2022-12-23T11:35:47.245Z,11.55
2022-12-23T11:39:12.371Z,11.55
2022-12-23T11:42:37.558Z,11.59
2022-12-23T11:46:02.812Z,11.58
2022-12-23T11:49:27.987Z,11.59
2022-12-23T11:52:53.187Z,11.57
2022-12-23T11:56:18.440Z,11.57
2022-12-23T11:59:43.588Z,11.57
2022-12-23T12:03:08.830Z,11.57
2022-12-23T12:06:33.994Z,11.58
2022-12-23T12:09:59.362Z,11.54
2022-12-23T12:13:24.462Z,11.5
2022-12-23T12:16:49.675Z,11.49
2022-12-23T12:20:14.825Z,11.51
2022-12-23T12:23:40.046Z,11.52
2022-12-23T12:27:05.271Z,11.51
2022-12-23T12:30:30.497Z,11.52
2022-12-23T12:33:55.662Z,11.48
2022-12-23T12:37:20.860Z,11.41
2022-12-23T12:40:46.038Z,11.4
2022-12-23T12:44:11.269Z,11.43
2022-12-23T12:47:53.167Z,11.44
2022-12-23T12:51:01.664Z,11.47
2022-12-23T12:54:26.881Z,11.51
2022-12-23T12:57:52.075Z,11.53
2022-12-23T13:01:17.350Z,11.55
2022-12-23T13:04:42.514Z,11.57
2022-12-23T13:08:07.740Z,11.59
2022-12-23T13:11:33.022Z,11.63
2022-12-23T13:14:58.280Z,11.61
2022-12-23T13:18:23.551Z,11.59
2022-12-23T13:21:48.703Z,11.6
2022-12-23T13:25:13.925Z,11.58
2022-12-23T13:28:39.198Z,11.6
2022-12-23T13:32:04.486Z,11.56
2022-12-23T13:35:29.682Z,11.53
2022-12-23T13:38:54.919Z,11.54
2022-12-23T13:42:20.101Z,11.58
2022-12-23T13:45:45.321Z,11.59
2022-12-23T13:49:10.501Z,11.62
2022-12-23T13:52:35.761Z,11.66
2022-12-23T13:56:00.965Z,11.7
2022-12-23T13:59:26.188Z,11.73
2022-12-23T14:02:51.465Z,11.73
2022-12-23T14:06:16.599Z,11.69
2022-12-23T14:09:41.869Z,11.65
2022-12-23T14:13:07.036Z,11.63
2022-12-23T14:16:32.270Z,11.61
2022-12-23T14:19:57.464Z,11.58
2022-12-23T14:23:22.742Z,11.53
2022-12-23T14:26:47.921Z,11.51
2022-12-23T14:30:13.105Z,11.49
2022-12-23T15:03:41.068Z,9.06
2022-12-23T15:07:06.317Z,10
2022-12-23T15:10:31.569Z,10.22
2022-12-23T15:13:56.819Z,10.39
2022-12-23T15:17:22.072Z,10.49
2022-12-23T15:20:47.328Z,10.59
2022-12-23T15:24:12.540Z,10.66
2022-12-23T15:27:37.781Z,10.68
2022-12-23T15:31:03.104Z,10.67
2022-12-23T15:34:28.296Z,10.68
2022-12-23T15:37:53.571Z,10.69
2022-12-23T15:41:18.867Z,10.71
2022-12-23T15:44:44.074Z,10.77
2022-12-23T15:48:09.331Z,10.82
2022-12-23T15:52:05.528Z,10.84
2022-12-23T15:54:59.842Z,10.86
2022-12-23T15:58:25.073Z,10.91
2022-12-23T16:01:50.431Z,10.95
2022-12-23T16:05:15.587Z,10.98
2022-12-23T16:08:40.830Z,11.02
2022-12-23T16:12:06.143Z,10.99
2022-12-23T16:15:31.303Z,10.95
2022-12-23T16:18:56.549Z,10.96
2022-12-23T16:22:21.781Z,10.96
2022-12-23T16:25:50.273Z,10.96
2022-12-23T16:29:12.278Z,10.94
2022-12-23T16:32:37.498Z,10.94
2022-12-23T16:36:02.791Z,10.97
2022-12-23T16:39:27.985Z,10.96
2022-12-23T16:42:53.223Z,10.98
2022-12-23T16:46:18.578Z,11.02
2022-12-23T16:49:43.721Z,11.04
2022-12-23T16:53:08.958Z,11.1
2022-12-23T16:56:34.224Z,11.16
2022-12-23T16:59:59.468Z,11.2
2022-12-23T17:03:24.751Z,11.24
2022-12-23T17:06:49.921Z,11.27
2022-12-23T17:10:15.186Z,11.32
2022-12-23T17:13:40.453Z,11.37
2022-12-23T17:17:05.811Z,11.42
2022-12-23T17:20:31.017Z,11.47
2022-12-23T17:23:56.253Z,11.48
2022-12-23T17:27:21.518Z,11.48
2022-12-23T17:30:46.840Z,11.49
2022-12-23T17:34:12.099Z,11.5
2022-12-23T17:37:37.388Z,11.48
2022-12-23T17:41:02.639Z,11.5
2022-12-23T17:44:27.917Z,11.48
2022-12-23T17:47:53.183Z,11.51
2022-12-23T17:51:18.400Z,11.54
2022-12-23T17:54:43.726Z,11.53
2022-12-23T17:58:08.935Z,11.5
2022-12-23T18:01:34.234Z,11.5
2022-12-23T18:04:59.442Z,11.49
2022-12-23T18:08:24.685Z,11.48
2022-12-23T18:11:49.943Z,11.48
2022-12-23T18:15:15.161Z,11.47
2022-12-23T18:18:46.089Z,11.46
2022-12-23T18:22:05.657Z,11.4
2022-12-23T18:25:30.902Z,11.38
2022-12-23T18:28:56.176Z,11.35
2022-12-23T18:32:22.136Z,11.34
2022-12-23T18:35:47.363Z,11.4
2022-12-23T18:39:12.719Z,11.43
2022-12-23T18:42:37.994Z,11.45
2022-12-23T18:46:03.299Z,11.44
2022-12-23T18:49:28.506Z,11.43
2022-12-23T18:52:53.783Z,11.48
2022-12-23T18:56:19.072Z,11.51
2022-12-23T18:59:44.343Z,11.53
2022-12-23T19:03:09.758Z,11.58
2022-12-23T19:06:34.947Z,11.6
2022-12-23T19:10:00.315Z,11.65
2022-12-23T19:13:25.611Z,11.71
2022-12-23T19:16:52.187Z,11.71
2022-12-23T19:20:16.187Z,11.71
2022-12-23T19:23:41.454Z,11.72
2022-12-23T19:27:06.696Z,11.71
2022-12-23T19:30:32.020Z,11.71
2022-12-23T19:33:57.256Z,11.72
2022-12-23T19:37:22.550Z,11.69
2022-12-23T19:40:47.761Z,11.68
2022-12-23T19:44:13.051Z,11.66
2022-12-23T19:47:38.375Z,11.65
2022-12-23T19:51:03.732Z,11.65
2022-12-23T19:54:29.027Z,11.66
2022-12-23T19:57:54.234Z,11.67
2022-12-23T20:01:19.489Z,11.67
2022-12-23T20:04:44.736Z,11.65
2022-12-23T20:08:10.001Z,11.67
2022-12-23T20:11:35.267Z,11.7
2022-12-23T20:15:00.526Z,11.72
2022-12-23T20:18:25.822Z,11.73
2022-12-23T20:21:51.085Z,11.77
2022-12-23T20:25:16.331Z,11.83
2022-12-23T20:28:41.607Z,11.85
2022-12-23T20:32:06.817Z,11.88
2022-12-23T20:35:32.086Z,11.89
2022-12-23T20:38:57.323Z,11.87
2022-12-23T20:42:22.598Z,11.87
2022-12-23T20:45:47.855Z,11.88
2022-12-23T20:49:13.073Z,11.91
2022-12-23T20:52:38.331Z,11.93
2022-12-23T20:56:03.574Z,11.94
2022-12-23T20:59:28.834Z,11.96
2022-12-23T21:02:54.202Z,11.98
2022-12-23T21:06:19.320Z,11.96
2022-12-23T21:09:44.553Z,11.96
2022-12-23T21:13:09.873Z,11.96
2022-12-23T21:16:35.292Z,11.93
2022-12-23T21:20:05.371Z,11.91
2022-12-23T21:23:25.675Z,11.88
2022-12-23T21:26:55.959Z,11.87
2022-12-23T21:30:16.148Z,11.86
2022-12-23T21:33:41.456Z,11.84
2022-12-23T21:37:06.724Z,11.85
2022-12-23T21:40:31.973Z,11.83
2022-12-23T21:43:57.239Z,11.76
2022-12-23T21:47:22.493Z,11.73
2022-12-23T21:50:47.741Z,11.69
2022-12-23T21:54:13.029Z,11.69
2022-12-23T21:57:38.273Z,11.67
2022-12-23T22:01:03.546Z,11.66
2022-12-23T22:04:28.750Z,11.66
2022-12-23T22:07:54.015Z,11.65
2022-12-23T22:11:19.277Z,11.64
2022-12-23T22:14:44.511Z,11.63
2022-12-23T22:18:09.761Z,11.65
2022-12-23T22:21:35.005Z,11.67
2022-12-23T22:25:00.213Z,11.67
2022-12-23T22:28:25.488Z,11.64
2022-12-23T22:31:50.808Z,11.62
2022-12-23T22:35:15.960Z,11.6
2022-12-23T22:38:41.217Z,11.59
2022-12-23T22:42:06.479Z,11.58
2022-12-23T22:45:31.778Z,11.57
2022-12-23T22:48:56.980Z,11.59
2022-12-23T22:52:22.185Z,11.6
2022-12-23T22:55:47.432Z,11.63
2022-12-23T22:59:12.692Z,11.63
2022-12-23T23:02:37.980Z,11.61
2022-12-23T23:06:03.240Z,11.6
2022-12-23T23:09:28.416Z,11.6
2022-12-23T23:12:53.667Z,11.61
2022-12-23T23:16:18.939Z,11.61
2022-12-23T23:19:44.168Z,11.58
2022-12-23T23:23:09.401Z,11.56
2022-12-23T23:26:34.649Z,11.54
2022-12-23T23:29:59.914Z,11.52
2022-12-23T23:33:25.144Z,11.51
2022-12-23T23:36:50.461Z,11.52
2022-12-23T23:40:15.642Z,11.49
2022-12-23T23:43:40.886Z,11.5
2022-12-23T23:47:06.123Z,11.51
2022-12-23T23:50:31.366Z,11.5
2022-12-23T23:53:56.644Z,11.5
2022-12-23T23:57:21.868Z,11.53
